createdAt,value
2018-04-16T00:00:46.136Z,4.00
2018-04-16T00:01:51.655Z,4.40
2018-04-16T00:02:57.167Z,4.40
2018-04-16T00:04:02.680Z,4.10
2018-04-16T00:05:08.197Z,4.10
2018-04-16T00:06:13.714Z,4.20
2018-04-16T00:07:19.228Z,4.20
2018-04-16T00:08:24.740Z,4.30
2018-04-16T00:09:30.254Z,4.60
2018-04-16T00:10:35.770Z,4.40
2018-04-16T00:11:41.287Z,4.40
2018-04-16T00:12:46.797Z,4.40
2018-04-16T00:13:52.308Z,4.40
2018-04-16T00:14:57.815Z,4.90
2018-04-16T00:16:03.334Z,4.40
2018-04-16T00:17:08.846Z,4.60
2018-04-16T00:18:14.361Z,4.50
2018-04-16T00:19:19.885Z,4.30
2018-04-16T00:20:25.385Z,4.60
2018-04-16T00:21:30.900Z,4.40
2018-04-16T00:22:36.419Z,4.20
2018-04-16T00:23:41.933Z,4.30
2018-04-16T00:24:47.440Z,4.10
2018-04-16T00:25:52.953Z,4.50
2018-04-16T00:26:58.471Z,4.50
2018-04-16T00:28:03.987Z,4.40
2018-04-16T00:29:09.505Z,4.20
2018-04-16T00:30:15.110Z,4.30
2018-04-16T00:31:20.523Z,4.60
2018-04-16T00:32:26.040Z,4.90
2018-04-16T00:33:31.554Z,4.50
2018-04-16T00:34:37.067Z,4.70
2018-04-16T00:35:42.582Z,4.50
2018-04-16T00:36:48.100Z,4.40
2018-04-16T00:37:53.609Z,4.60
2018-04-16T00:38:59.121Z,4.60
2018-04-16T00:40:04.637Z,4.70
2018-04-16T00:41:10.144Z,4.90
2018-04-16T00:42:15.659Z,4.40
2018-04-16T00:43:21.184Z,4.30
2018-04-16T00:44:26.685Z,4.30
2018-04-16T00:45:32.205Z,4.60
2018-04-16T00:46:37.717Z,4.60
2018-04-16T00:47:43.231Z,4.60
2018-04-16T00:48:48.743Z,4.60
2018-04-16T00:49:54.254Z,4.70
2018-04-16T00:50:59.768Z,4.80
2018-04-16T00:52:05.293Z,4.40
2018-04-16T00:53:10.854Z,4.50
2018-04-16T00:54:16.317Z,4.60
2018-04-16T00:55:21.825Z,4.40
2018-04-16T00:56:27.339Z,4.40
2018-04-16T00:57:32.851Z,4.40
2018-04-16T00:58:38.371Z,4.90
2018-04-16T00:59:43.879Z,4.50
2018-04-16T01:00:49.398Z,4.80
2018-04-16T01:01:54.907Z,4.40
2018-04-16T01:03:00.417Z,4.50
2018-04-16T01:04:05.936Z,4.60
2018-04-16T01:05:11.497Z,4.90
2018-04-16T01:06:17.059Z,4.60
2018-04-16T01:07:22.471Z,4.60
2018-04-16T01:08:27.987Z,5.10
2018-04-16T01:09:33.503Z,5.10
2018-04-16T01:10:39.012Z,4.80
2018-04-16T01:11:44.526Z,4.70
2018-04-16T01:12:50.049Z,4.70
2018-04-16T01:13:55.553Z,4.50
2018-04-16T01:15:01.068Z,4.90
2018-04-16T01:16:06.580Z,4.70
2018-04-16T01:17:12.094Z,4.30
2018-04-16T01:18:17.605Z,4.60
2018-04-16T01:19:23.119Z,4.60
2018-04-16T01:20:28.642Z,4.50
2018-04-16T01:21:34.147Z,4.60
2018-04-16T01:22:39.679Z,4.70
2018-04-16T01:23:45.179Z,5.00
2018-04-16T01:24:50.688Z,4.30
2018-04-16T01:25:56.201Z,4.60
2018-04-16T01:27:01.712Z,4.60
2018-04-16T01:28:07.228Z,4.90
2018-04-16T01:29:12.746Z,5.20
2018-04-16T01:30:18.260Z,5.10
2018-04-16T01:31:23.767Z,5.30
2018-04-16T01:32:29.284Z,4.80
2018-04-16T01:33:34.796Z,5.20
2018-04-16T01:34:40.309Z,5.00
2018-04-16T01:35:45.837Z,5.20
2018-04-16T01:36:51.431Z,5.10
2018-04-16T01:37:56.849Z,5.20
2018-04-16T01:39:02.367Z,5.40
2018-04-16T01:40:07.879Z,5.40
2018-04-16T01:41:13.392Z,5.20
2018-04-16T01:42:18.904Z,5.30
2018-04-16T01:43:24.418Z,4.80
2018-04-16T01:44:29.931Z,4.90
2018-04-16T01:45:35.456Z,5.00
2018-04-16T01:46:40.959Z,4.80
2018-04-16T01:47:46.473Z,4.70
2018-04-16T01:48:51.983Z,5.00
2018-04-16T01:49:57.505Z,5.10
2018-04-16T01:51:03.009Z,5.10
2018-04-16T01:52:08.522Z,5.20
2018-04-16T01:53:14.039Z,5.10
2018-04-16T01:54:19.555Z,5.30
2018-04-16T01:55:25.067Z,5.20
2018-04-16T01:56:30.577Z,5.00
2018-04-16T01:57:36.093Z,5.30
2018-04-16T01:58:41.604Z,4.90
2018-04-16T01:59:47.122Z,5.10
2018-04-16T02:00:52.635Z,5.20
2018-04-16T02:01:58.149Z,5.00
2018-04-16T02:03:03.662Z,5.30
2018-04-16T02:04:09.177Z,5.20
2018-04-16T02:05:14.684Z,5.50
2018-04-16T02:06:20.237Z,5.10
2018-04-16T02:07:25.708Z,5.10
2018-04-16T02:08:31.228Z,5.50
2018-04-16T02:09:36.742Z,5.40
2018-04-16T02:10:42.254Z,5.50
2018-04-16T02:11:47.765Z,5.60
2018-04-16T02:12:53.278Z,5.60
2018-04-16T02:13:58.791Z,5.20
2018-04-16T02:15:04.308Z,5.40
2018-04-16T02:16:09.817Z,5.80
2018-04-16T02:17:15.327Z,6.00
2018-04-16T02:18:20.848Z,6.20
2018-04-16T02:19:26.373Z,5.90
2018-04-16T02:20:31.875Z,5.70
2018-04-16T02:21:37.383Z,5.50
2018-04-16T02:22:42.896Z,6.00
2018-04-16T02:23:48.424Z,5.70
2018-04-16T02:24:53.928Z,5.60
2018-04-16T02:25:59.451Z,5.50
2018-04-16T02:27:04.958Z,5.50
2018-04-16T02:28:10.467Z,5.50
2018-04-16T02:29:15.979Z,5.90
2018-04-16T02:30:21.492Z,5.70
2018-04-16T02:31:27.003Z,6.20
2018-04-16T02:32:32.519Z,6.30
2018-04-16T02:33:38.029Z,6.30
2018-04-16T02:34:43.539Z,5.90
2018-04-16T02:35:49.061Z,6.30
2018-04-16T02:36:54.572Z,6.70
2018-04-16T02:38:00.085Z,6.20
2018-04-16T02:39:05.599Z,6.10
2018-04-16T02:40:11.112Z,6.30
2018-04-16T02:41:16.621Z,6.70
2018-04-16T02:42:22.134Z,6.80
2018-04-16T02:43:27.647Z,7.20
2018-04-16T02:44:33.168Z,6.70
2018-04-16T02:45:38.674Z,7.50
2018-04-16T02:46:44.311Z,7.30
2018-04-16T02:47:49.702Z,6.60
2018-04-16T02:48:55.218Z,6.00
2018-04-16T02:50:00.727Z,5.50
2018-04-16T02:51:06.240Z,5.90
2018-04-16T02:52:11.769Z,5.90
2018-04-16T02:53:17.265Z,5.80
2018-04-16T02:54:22.785Z,6.00
2018-04-16T02:55:28.300Z,6.40
2018-04-16T02:56:33.808Z,6.00
2018-04-16T02:57:39.318Z,6.00
2018-04-16T02:58:44.835Z,6.40
2018-04-16T02:59:50.346Z,6.20
2018-04-16T03:00:55.859Z,6.00
2018-04-16T03:02:01.372Z,6.00
2018-04-16T03:03:06.891Z,5.70
2018-04-16T03:04:12.404Z,6.00
2018-04-16T03:05:17.909Z,6.30
2018-04-16T03:06:23.421Z,5.50
2018-04-16T03:07:28.949Z,5.60
2018-04-16T03:08:34.447Z,5.40
2018-04-16T03:09:39.970Z,5.30
2018-04-16T03:10:45.480Z,5.70
2018-04-16T03:11:50.993Z,5.70
2018-04-16T03:12:56.499Z,5.60
2018-04-16T03:14:02.016Z,5.40
2018-04-16T03:15:07.527Z,5.50
2018-04-16T03:16:13.044Z,5.70
2018-04-16T03:17:18.554Z,6.20
2018-04-16T03:18:24.069Z,5.70
2018-04-16T03:19:29.579Z,6.20
2018-04-16T03:20:35.091Z,6.20
2018-04-16T03:21:40.604Z,5.10
2018-04-16T03:22:46.124Z,5.80
2018-04-16T03:23:51.635Z,5.40
2018-04-16T03:24:57.158Z,5.60
2018-04-16T03:26:02.659Z,5.90
2018-04-16T03:27:08.169Z,5.80
2018-04-16T03:28:13.718Z,6.40
2018-04-16T03:29:19.196Z,5.80
2018-04-16T03:30:24.714Z,5.30
2018-04-16T03:31:30.224Z,5.80
2018-04-16T03:32:35.734Z,5.90
2018-04-16T03:33:41.246Z,5.30
2018-04-16T03:34:46.761Z,5.50
2018-04-16T03:35:52.274Z,5.10
2018-04-16T03:36:57.782Z,6.10
2018-04-16T03:38:03.297Z,5.50
2018-04-16T03:39:08.811Z,6.20
2018-04-16T03:40:14.324Z,5.90
2018-04-16T03:41:19.838Z,5.70
2018-04-16T03:42:25.352Z,5.10
2018-04-16T03:43:30.867Z,5.50
2018-04-16T03:44:36.378Z,5.00
2018-04-16T03:45:41.897Z,5.70
2018-04-16T03:46:47.414Z,5.70
2018-04-16T03:47:52.918Z,6.20
2018-04-16T03:48:58.427Z,5.60
2018-04-16T03:50:03.944Z,5.60
2018-04-16T03:51:09.451Z,6.00
2018-04-16T03:52:14.968Z,6.10
2018-04-16T03:53:20.481Z,6.40
2018-04-16T03:54:25.995Z,6.80
2018-04-16T03:55:31.508Z,6.90
2018-04-16T03:56:37.024Z,6.40
2018-04-16T03:57:42.539Z,6.50
2018-04-16T03:58:48.047Z,6.50
2018-04-16T03:59:53.562Z,6.30
2018-04-16T04:00:59.071Z,6.10
2018-04-16T04:02:04.584Z,6.20
2018-04-16T04:03:10.101Z,7.80
2018-04-16T04:04:15.612Z,6.50
2018-04-16T04:05:21.129Z,6.00
2018-04-16T04:06:26.635Z,6.30
2018-04-16T04:07:32.154Z,6.50
2018-04-16T04:08:37.669Z,5.40
2018-04-16T04:09:43.180Z,5.90
2018-04-16T04:10:48.689Z,5.60
2018-04-16T04:11:54.200Z,6.60
2018-04-16T04:12:59.713Z,5.70
2018-04-16T04:14:05.228Z,6.80
2018-04-16T04:15:10.741Z,6.40
2018-04-16T04:16:16.255Z,6.30
2018-04-16T04:17:21.771Z,6.70
2018-04-16T04:18:27.280Z,6.30
2018-04-16T04:19:32.793Z,6.10
2018-04-16T04:20:38.303Z,6.40
2018-04-16T04:21:43.823Z,6.40
2018-04-16T04:22:49.334Z,6.50
2018-04-16T04:23:54.847Z,6.80
2018-04-16T04:25:00.399Z,5.80
2018-04-16T04:26:05.900Z,5.80
2018-04-16T04:27:11.381Z,5.40
2018-04-16T04:28:16.894Z,5.40
2018-04-16T04:29:22.406Z,5.60
2018-04-16T04:30:27.926Z,5.70
2018-04-16T04:31:33.437Z,5.40
2018-04-16T04:32:38.959Z,5.80
2018-04-16T04:33:44.460Z,5.40
2018-04-16T04:34:49.975Z,4.40
2018-04-16T04:35:55.495Z,4.80
2018-04-16T04:37:01.000Z,5.10
2018-04-16T04:38:06.517Z,5.20
2018-04-16T04:39:12.028Z,5.10
2018-04-16T04:40:17.548Z,5.40
2018-04-16T04:41:23.050Z,5.50
2018-04-16T04:42:28.564Z,6.00
2018-04-16T04:43:34.074Z,6.80
2018-04-16T04:44:39.587Z,6.90
2018-04-16T04:45:45.099Z,7.40
2018-04-16T04:46:50.616Z,7.20
2018-04-16T04:47:56.129Z,7.40
2018-04-16T04:49:01.652Z,7.00
2018-04-16T04:50:07.147Z,7.10
2018-04-16T04:51:12.660Z,6.80
2018-04-16T04:52:18.173Z,7.40
2018-04-16T04:53:23.684Z,7.10
2018-04-16T04:54:29.201Z,6.70
2018-04-16T04:55:34.722Z,6.80
2018-04-16T04:56:40.227Z,7.30
2018-04-16T04:57:45.741Z,7.90
2018-04-16T04:58:51.249Z,7.80
2018-04-16T04:59:56.765Z,7.50
2018-04-16T05:01:02.274Z,7.50
2018-04-16T05:02:07.788Z,7.00
2018-04-16T05:03:13.301Z,7.70
2018-04-16T05:04:18.813Z,8.00
2018-04-16T05:05:24.322Z,7.50
2018-04-16T05:06:29.896Z,7.00
2018-04-16T05:07:35.359Z,7.60
2018-04-16T05:08:40.872Z,7.30
2018-04-16T05:09:46.378Z,7.30
2018-04-16T05:10:52.009Z,7.10
2018-04-16T05:11:57.404Z,6.90
2018-04-16T05:13:02.993Z,6.30
2018-04-16T05:14:08.431Z,7.40
2018-04-16T05:15:13.949Z,6.80
2018-04-16T05:16:19.474Z,7.20
2018-04-16T05:17:24.963Z,7.90
2018-04-16T05:18:30.476Z,7.00
2018-04-16T05:19:35.990Z,7.10
2018-04-16T05:20:41.503Z,7.70
2018-04-16T05:21:47.010Z,8.20
2018-04-16T05:22:52.520Z,8.60
2018-04-16T05:23:58.038Z,8.30
2018-04-16T05:25:03.549Z,7.60
2018-04-16T05:26:09.059Z,7.90
2018-04-16T05:27:14.568Z,8.30
2018-04-16T05:28:20.090Z,8.10
2018-04-16T05:29:25.595Z,8.20
2018-04-16T05:30:31.110Z,8.20
2018-04-16T05:31:36.630Z,9.50
2018-04-16T05:32:42.129Z,9.20
2018-04-16T05:33:47.647Z,7.90
2018-04-16T05:34:53.156Z,7.20
2018-04-16T05:35:58.670Z,8.30
2018-04-16T05:37:04.196Z,8.40
2018-04-16T05:38:09.698Z,8.40
2018-04-16T05:39:15.204Z,9.00
2018-04-16T05:40:20.720Z,8.80
2018-04-16T05:41:26.230Z,8.40
2018-04-16T05:42:31.779Z,8.40
2018-04-16T05:43:37.258Z,7.90
2018-04-16T05:44:42.769Z,8.40
2018-04-16T05:45:48.279Z,8.10
2018-04-16T05:46:53.799Z,8.20
2018-04-16T05:47:59.308Z,8.90
2018-04-16T05:49:04.821Z,9.20
2018-04-16T05:50:10.332Z,9.40
2018-04-16T05:51:15.870Z,9.80
2018-04-16T05:52:21.364Z,9.20
2018-04-16T05:53:26.877Z,9.80
2018-04-16T05:54:32.463Z,9.20
2018-04-16T05:55:37.896Z,8.70
2018-04-16T05:56:43.410Z,8.60
2018-04-16T05:57:48.926Z,8.50
2018-04-16T05:58:54.436Z,9.20
2018-04-16T05:59:59.949Z,8.60
2018-04-16T06:01:05.462Z,9.20
2018-04-16T06:02:10.976Z,9.20
2018-04-16T06:03:16.488Z,9.10
2018-04-16T06:04:21.998Z,10.10
2018-04-16T06:05:27.514Z,10.00
2018-04-16T06:06:33.046Z,9.50
2018-04-16T06:07:38.550Z,9.40
2018-04-16T06:08:44.066Z,9.50
2018-04-16T06:09:49.564Z,9.90
2018-04-16T06:10:55.079Z,9.80
2018-04-16T06:12:00.590Z,10.00
2018-04-16T06:13:06.106Z,9.30
2018-04-16T06:14:11.616Z,9.30
2018-04-16T06:15:17.143Z,9.90
2018-04-16T06:16:22.643Z,10.30
2018-04-16T06:17:28.157Z,10.00
2018-04-16T06:18:33.670Z,10.30
2018-04-16T06:19:39.193Z,11.00
2018-04-16T06:20:44.700Z,10.50
2018-04-16T06:21:50.209Z,10.50
2018-04-16T06:22:55.729Z,11.40
2018-04-16T06:24:01.288Z,11.00
2018-04-16T06:25:06.752Z,10.60
2018-04-16T06:26:12.267Z,10.90
2018-04-16T06:27:17.822Z,10.70
2018-04-16T06:28:23.296Z,11.60
2018-04-16T06:29:28.810Z,10.70
2018-04-16T06:30:34.318Z,10.90
2018-04-16T06:31:39.832Z,10.90
2018-04-16T06:32:45.345Z,13.20
2018-04-16T06:33:50.872Z,11.70
2018-04-16T06:34:56.377Z,12.00
2018-04-16T06:36:01.887Z,11.70
2018-04-16T06:37:07.402Z,11.30
2018-04-16T06:38:12.912Z,12.00
2018-04-16T06:39:18.502Z,11.50
2018-04-16T06:40:23.942Z,10.80
2018-04-16T06:41:29.458Z,10.90
2018-04-16T06:42:34.969Z,11.30
2018-04-16T06:43:40.520Z,11.90
2018-04-16T06:44:45.999Z,11.60
2018-04-16T06:45:51.510Z,11.30
2018-04-16T06:46:57.028Z,10.80
2018-04-16T06:48:02.550Z,10.60
2018-04-16T06:49:08.056Z,10.40
2018-04-16T06:50:13.566Z,11.10
2018-04-16T06:51:19.080Z,11.30
2018-04-16T06:52:24.598Z,10.60
2018-04-16T06:53:30.110Z,10.80
2018-04-16T06:54:35.623Z,10.80
2018-04-16T06:55:41.139Z,10.70
2018-04-16T06:56:46.656Z,11.10
2018-04-16T06:57:52.164Z,10.60
2018-04-16T06:58:57.679Z,10.30
2018-04-16T07:00:03.247Z,10.30
2018-04-16T07:01:08.722Z,10.60
2018-04-16T07:02:14.231Z,11.00
2018-04-16T07:03:19.736Z,10.60
2018-04-16T07:04:25.270Z,9.70
2018-04-16T07:05:30.766Z,10.50
2018-04-16T07:06:36.276Z,10.80
2018-04-16T07:07:41.796Z,10.10
2018-04-16T07:08:47.310Z,10.30
2018-04-16T07:09:52.821Z,10.00
2018-04-16T07:10:58.337Z,10.20
2018-04-16T07:12:03.846Z,10.10
2018-04-16T07:13:09.369Z,10.00
2018-04-16T07:14:14.886Z,10.00
2018-04-16T07:15:20.395Z,9.80
2018-04-16T07:16:25.914Z,9.40
2018-04-16T07:17:31.460Z,10.30
2018-04-16T07:18:36.937Z,9.70
2018-04-16T07:19:42.450Z,9.70
2018-04-16T07:20:47.964Z,10.00
2018-04-16T07:21:53.490Z,9.20
2018-04-16T07:22:58.995Z,10.20
2018-04-16T07:24:04.508Z,9.30
2018-04-16T07:25:10.025Z,9.50
2018-04-16T07:26:15.540Z,10.00
2018-04-16T07:27:21.104Z,10.20
2018-04-16T07:28:26.567Z,9.80
2018-04-16T07:29:32.092Z,9.30
2018-04-16T07:30:37.602Z,9.60
2018-04-16T07:31:43.116Z,9.30
2018-04-16T07:32:48.624Z,9.80
2018-04-16T07:33:54.142Z,9.60
2018-04-16T07:34:59.662Z,9.70
2018-04-16T07:36:05.183Z,9.30
2018-04-16T07:37:10.687Z,8.90
2018-04-16T07:38:16.200Z,9.00
2018-04-16T07:39:21.715Z,9.20
2018-04-16T07:40:27.231Z,9.40
2018-04-16T07:41:32.746Z,9.10
2018-04-16T07:42:38.272Z,9.10
2018-04-16T07:43:43.831Z,9.10
2018-04-16T07:44:49.301Z,9.60
2018-04-16T07:45:54.807Z,9.20
2018-04-16T07:47:00.328Z,9.10
2018-04-16T07:48:05.834Z,8.90
2018-04-16T07:49:11.357Z,9.00
2018-04-16T07:50:16.872Z,9.00
2018-04-16T07:51:22.380Z,8.20
2018-04-16T07:52:27.896Z,8.40
2018-04-16T07:53:33.414Z,8.80
2018-04-16T07:54:38.927Z,8.90
2018-04-16T07:55:44.453Z,9.10
2018-04-16T07:56:49.957Z,8.80
2018-04-16T07:57:55.480Z,8.70
2018-04-16T07:59:00.998Z,8.30
2018-04-16T08:00:06.509Z,8.70
2018-04-16T08:01:12.022Z,8.90
2018-04-16T08:02:17.539Z,9.20
2018-04-16T08:03:23.056Z,9.00
2018-04-16T08:04:28.568Z,9.00
2018-04-16T08:05:34.090Z,9.30
2018-04-16T08:06:39.638Z,8.80
2018-04-16T08:07:45.144Z,8.80
2018-04-16T08:08:50.626Z,9.20
2018-04-16T08:09:56.155Z,9.20
2018-04-16T08:11:01.658Z,9.60
2018-04-16T08:12:07.178Z,9.00
2018-04-16T08:13:12.689Z,9.10
2018-04-16T08:14:18.202Z,9.40
2018-04-16T08:15:23.721Z,9.40
2018-04-16T08:16:29.235Z,9.50
2018-04-16T08:17:34.753Z,8.80
2018-04-16T08:18:40.267Z,8.60
2018-04-16T08:19:45.790Z,9.00
2018-04-16T08:20:51.298Z,9.20
2018-04-16T08:21:56.824Z,9.50
2018-04-16T08:23:02.327Z,9.70
2018-04-16T08:24:07.846Z,9.70
2018-04-16T08:25:13.375Z,10.00
2018-04-16T08:26:18.887Z,9.60
2018-04-16T08:27:24.409Z,9.60
2018-04-16T08:28:29.924Z,10.50
2018-04-16T08:29:35.433Z,9.50
2018-04-16T08:30:40.947Z,9.50
2018-04-16T08:31:46.464Z,9.80
2018-04-16T08:32:51.976Z,10.10
2018-04-16T08:33:57.496Z,10.50
2018-04-16T08:35:03.016Z,10.80
2018-04-16T08:36:08.527Z,10.90
2018-04-16T08:37:14.041Z,9.70
2018-04-16T08:38:19.557Z,9.60
2018-04-16T08:39:25.068Z,9.40
2018-04-16T08:40:30.582Z,9.40
2018-04-16T08:41:36.109Z,9.20
2018-04-16T08:42:41.620Z,9.30
2018-04-16T08:43:47.163Z,9.30
2018-04-16T08:44:52.653Z,9.50
2018-04-16T08:45:58.191Z,9.40
2018-04-16T08:47:03.685Z,8.90
2018-04-16T08:48:09.197Z,8.50
2018-04-16T08:49:14.714Z,8.80
2018-04-16T08:50:20.242Z,8.80
2018-04-16T08:51:25.749Z,8.20
2018-04-16T08:52:31.321Z,8.60
2018-04-16T08:53:36.791Z,9.40
2018-04-16T08:54:42.294Z,9.30
2018-04-16T08:55:47.813Z,9.00
2018-04-16T08:56:53.328Z,8.60
2018-04-16T08:57:58.848Z,8.60
2018-04-16T08:59:04.374Z,8.00
2018-04-16T09:00:09.883Z,8.70
2018-04-16T09:01:15.405Z,7.80
2018-04-16T09:02:20.911Z,7.30
2018-04-16T09:03:26.437Z,7.50
2018-04-16T09:04:31.951Z,6.80
2018-04-16T09:05:37.465Z,6.60
2018-04-16T09:06:42.986Z,5.70
2018-04-16T09:07:48.602Z,6.80
2018-04-16T09:08:54.026Z,6.90
2018-04-16T09:09:59.531Z,6.70
2018-04-16T09:11:05.048Z,6.20
2018-04-16T09:12:10.572Z,6.30
2018-04-16T09:13:16.090Z,4.50
2018-04-16T09:14:21.602Z,4.30
2018-04-16T09:15:27.115Z,4.50
2018-04-16T09:16:32.633Z,4.80
2018-04-16T09:17:38.150Z,5.10
2018-04-16T09:18:43.671Z,5.40
2018-04-16T09:19:49.196Z,5.30
2018-04-16T09:20:54.704Z,5.60
2018-04-16T09:22:00.231Z,5.70
2018-04-16T09:23:05.742Z,6.10
2018-04-16T09:24:11.257Z,5.90
2018-04-16T09:25:16.778Z,5.40
2018-04-16T09:26:22.288Z,5.40
2018-04-16T09:27:27.817Z,5.40
2018-04-16T09:28:33.328Z,5.50
2018-04-16T09:29:38.838Z,5.90
2018-04-16T09:30:44.361Z,6.00
2018-04-16T09:31:49.875Z,5.90
2018-04-16T09:32:55.394Z,6.10
2018-04-16T09:34:00.908Z,6.00
2018-04-16T09:35:06.426Z,6.30
2018-04-16T09:36:11.947Z,6.30
2018-04-16T09:37:17.458Z,6.30
2018-04-16T09:38:22.981Z,6.60
2018-04-16T09:39:28.500Z,6.50
2018-04-16T09:40:34.011Z,6.70
2018-04-16T09:41:39.527Z,7.90
2018-04-16T09:42:45.045Z,7.00
2018-04-16T09:43:50.568Z,7.40
2018-04-16T09:44:56.086Z,7.20
2018-04-16T09:46:01.595Z,7.20
2018-04-16T09:47:07.113Z,6.50
2018-04-16T09:48:12.633Z,6.80
2018-04-16T09:49:18.148Z,6.10
2018-04-16T09:50:23.701Z,6.30
2018-04-16T09:51:29.183Z,6.30
2018-04-16T09:52:34.698Z,6.30
2018-04-16T09:53:40.218Z,6.50
2018-04-16T09:54:45.736Z,6.90
2018-04-16T09:55:51.267Z,8.10
2018-04-16T09:56:56.777Z,8.60
2018-04-16T09:58:02.289Z,7.60
2018-04-16T09:59:07.801Z,6.60
2018-04-16T10:00:13.399Z,7.20
2018-04-16T10:01:18.839Z,7.30
2018-04-16T10:02:24.354Z,7.90
2018-04-16T10:03:29.874Z,7.70
2018-04-16T10:04:35.388Z,8.40
2018-04-16T10:05:41.034Z,8.00
2018-04-16T10:06:46.428Z,7.70
2018-04-16T10:07:51.948Z,7.50
2018-04-16T10:08:57.464Z,7.60
2018-04-16T10:10:02.975Z,7.50
2018-04-16T10:11:08.503Z,6.90
2018-04-16T10:12:14.010Z,6.30
2018-04-16T10:13:19.535Z,5.90
2018-04-16T10:14:25.046Z,6.10
2018-04-16T10:15:30.572Z,6.70
2018-04-16T10:16:36.080Z,6.20
2018-04-16T10:17:41.597Z,5.90
2018-04-16T10:18:47.121Z,5.90
2018-04-16T10:19:52.642Z,5.90
2018-04-16T10:20:58.150Z,5.40
2018-04-16T10:22:03.669Z,6.00
2018-04-16T10:23:09.185Z,6.30
2018-04-16T10:24:14.704Z,5.10
2018-04-16T10:25:20.217Z,5.30
2018-04-16T10:26:25.789Z,5.70
2018-04-16T10:27:31.255Z,5.40
2018-04-16T10:28:36.770Z,5.80
2018-04-16T10:29:42.293Z,5.40
2018-04-16T10:30:47.810Z,6.20
2018-04-16T10:31:53.327Z,6.80
2018-04-16T10:32:58.850Z,7.00
2018-04-16T10:34:04.372Z,6.30
2018-04-16T10:35:09.877Z,6.50
2018-04-16T10:36:15.399Z,7.30
2018-04-16T10:37:20.916Z,8.20
2018-04-16T10:38:26.510Z,8.80
2018-04-16T10:39:31.951Z,9.90
2018-04-16T10:40:37.474Z,8.60
2018-04-16T10:41:42.996Z,7.50
2018-04-16T10:42:48.502Z,6.70
2018-04-16T10:43:54.021Z,6.80
2018-04-16T10:44:59.539Z,7.50
2018-04-16T10:46:05.052Z,6.80
2018-04-16T10:47:10.577Z,6.70
2018-04-16T10:48:16.089Z,6.20
2018-04-16T10:49:21.626Z,6.20
2018-04-16T10:50:27.124Z,6.20
2018-04-16T10:51:32.659Z,7.40
2018-04-16T10:52:38.157Z,6.70
2018-04-16T10:53:43.680Z,6.60
2018-04-16T10:54:49.201Z,6.90
2018-04-16T10:55:54.713Z,6.60
2018-04-16T10:57:00.234Z,6.90
2018-04-16T10:58:05.759Z,8.20
2018-04-16T10:59:11.305Z,6.50
2018-04-16T11:00:16.781Z,8.00
2018-04-16T11:01:22.299Z,8.60
2018-04-16T11:02:27.818Z,8.10
2018-04-16T11:03:33.339Z,8.70
2018-04-16T11:04:38.852Z,8.90
2018-04-16T11:05:44.374Z,9.60
2018-04-16T11:06:49.889Z,9.60
2018-04-16T11:07:55.406Z,10.10
2018-04-16T11:09:00.935Z,9.70
2018-04-16T11:10:06.442Z,11.90
2018-04-16T11:11:11.961Z,9.30
2018-04-16T11:12:17.476Z,9.50
2018-04-16T11:13:22.998Z,9.80
2018-04-16T11:14:28.535Z,9.80
2018-04-16T11:15:34.038Z,9.40
2018-04-16T11:16:39.553Z,9.00
2018-04-16T11:17:45.082Z,8.60
2018-04-16T11:18:50.585Z,7.60
2018-04-16T11:19:56.101Z,8.10
2018-04-16T11:21:01.624Z,7.60
2018-04-16T11:22:07.136Z,7.70
2018-04-16T11:23:12.659Z,9.30
2018-04-16T11:24:18.192Z,9.10
2018-04-16T11:25:23.697Z,9.90
2018-04-16T11:26:29.251Z,11.00
2018-04-16T11:27:34.729Z,11.20
2018-04-16T11:28:40.249Z,11.00
2018-04-16T11:29:45.765Z,11.20
2018-04-16T11:30:51.282Z,12.20
2018-04-16T11:31:56.804Z,11.80
2018-04-16T11:33:02.328Z,12.00
2018-04-16T11:34:07.844Z,12.50
2018-04-16T11:35:13.363Z,12.90
2018-04-16T11:36:18.869Z,12.60
2018-04-16T11:37:24.388Z,12.50
2018-04-16T11:38:30.001Z,12.30
2018-04-16T11:39:35.428Z,12.30
2018-04-16T11:40:40.948Z,12.60
2018-04-16T11:41:46.471Z,12.70
2018-04-16T11:42:51.983Z,13.10
2018-04-16T11:43:57.498Z,12.70
2018-04-16T11:45:03.019Z,12.00
2018-04-16T11:46:08.534Z,13.60
2018-04-16T11:47:14.058Z,13.20
2018-04-16T11:48:19.579Z,12.50
2018-04-16T11:49:25.103Z,11.00
2018-04-16T11:50:30.611Z,11.70
2018-04-16T11:51:36.129Z,12.30
2018-04-16T11:52:41.648Z,12.40
2018-04-16T11:53:47.169Z,12.60
2018-04-16T11:54:52.689Z,10.80
2018-04-16T11:55:58.210Z,10.50
2018-04-16T11:57:03.723Z,9.90
2018-04-16T11:58:09.237Z,10.00
2018-04-16T11:59:14.757Z,10.40
2018-04-16T12:00:20.275Z,10.90
2018-04-16T12:01:25.802Z,11.10
2018-04-16T12:02:31.314Z,11.70
2018-04-16T12:03:36.833Z,12.60
2018-04-16T12:04:42.392Z,12.50
2018-04-16T12:05:47.866Z,12.00
2018-04-16T12:06:53.394Z,11.70
2018-04-16T12:07:58.904Z,12.90
2018-04-16T12:09:04.425Z,13.50
2018-04-16T12:10:09.948Z,13.80
2018-04-16T12:11:15.463Z,14.00
2018-04-16T12:12:21.003Z,14.40
2018-04-16T12:13:26.518Z,13.40
2018-04-16T12:14:32.023Z,13.50
2018-04-16T12:15:37.540Z,11.90
2018-04-16T12:16:43.093Z,13.40
2018-04-16T12:17:48.571Z,14.20
2018-04-16T12:18:54.088Z,13.90
2018-04-16T12:19:59.612Z,14.20
2018-04-16T12:21:05.129Z,13.40
2018-04-16T12:22:10.641Z,12.90
2018-04-16T12:23:16.172Z,13.10
2018-04-16T12:24:21.692Z,11.80
2018-04-16T12:25:27.195Z,12.40
2018-04-16T12:26:32.715Z,11.40
2018-04-16T12:27:38.250Z,12.10
2018-04-16T12:28:43.751Z,11.90
2018-04-16T12:29:49.278Z,11.50
2018-04-16T12:30:54.791Z,10.90
2018-04-16T12:32:00.309Z,10.90
2018-04-16T12:33:05.890Z,10.60
2018-04-16T12:34:11.347Z,9.20
2018-04-16T12:35:16.868Z,9.30
2018-04-16T12:36:22.388Z,9.30
2018-04-16T12:37:27.899Z,9.50
2018-04-16T12:38:33.414Z,9.00
2018-04-16T12:39:38.960Z,9.90
2018-04-16T12:40:44.455Z,8.50
2018-04-16T12:41:49.976Z,7.80
2018-04-16T12:42:55.502Z,8.00
2018-04-16T12:44:01.008Z,7.50
2018-04-16T12:45:06.532Z,8.40
2018-04-16T12:46:12.047Z,9.00
2018-04-16T12:47:17.569Z,9.20
2018-04-16T12:48:23.083Z,9.10
2018-04-16T12:49:28.602Z,8.80
2018-04-16T12:50:34.133Z,8.90
2018-04-16T12:51:39.659Z,9.00
2018-04-16T12:52:45.162Z,8.90
2018-04-16T12:53:50.676Z,8.40
2018-04-16T12:54:56.195Z,8.30
2018-04-16T12:56:01.716Z,8.20
2018-04-16T12:57:07.233Z,7.40
2018-04-16T12:58:12.761Z,7.20
2018-04-16T12:59:18.268Z,7.30
2018-04-16T13:00:23.796Z,6.60
2018-04-16T13:01:29.333Z,6.60
2018-04-16T13:02:34.836Z,6.50
2018-04-16T13:03:40.349Z,6.30
2018-04-16T13:04:45.860Z,6.40
2018-04-16T13:05:51.379Z,6.30
2018-04-16T13:06:56.899Z,6.30
2018-04-16T13:08:02.430Z,6.10
2018-04-16T13:09:07.941Z,6.50
2018-04-16T13:10:13.461Z,6.70
2018-04-16T13:11:18.984Z,6.00
2018-04-16T13:12:24.498Z,5.90
2018-04-16T13:13:30.022Z,6.60
2018-04-16T13:14:35.534Z,6.10
2018-04-16T13:15:41.052Z,6.20
2018-04-16T13:16:46.567Z,6.60
2018-04-16T13:17:52.088Z,6.70
2018-04-16T13:18:57.619Z,7.10
2018-04-16T13:20:03.160Z,6.50
2018-04-16T13:21:08.649Z,6.10
2018-04-16T13:22:14.170Z,6.40
2018-04-16T13:23:19.700Z,6.40
2018-04-16T13:24:25.198Z,6.80
2018-04-16T13:25:30.720Z,5.90
2018-04-16T13:26:36.241Z,5.10
2018-04-16T13:27:41.756Z,5.90
2018-04-16T13:28:47.279Z,5.70
2018-04-16T13:29:52.798Z,6.00
2018-04-16T13:30:58.316Z,5.40
2018-04-16T13:32:03.842Z,5.30
2018-04-16T13:33:09.356Z,5.20
2018-04-16T13:34:14.877Z,4.60
2018-04-16T13:35:20.399Z,4.80
2018-04-16T13:36:25.971Z,4.60
2018-04-16T13:37:31.438Z,4.70
2018-04-16T13:38:36.958Z,4.80
2018-04-16T13:39:42.488Z,5.00
2018-04-16T13:40:47.994Z,4.70
2018-04-16T13:41:53.520Z,4.70
2018-04-16T13:42:59.066Z,5.10
2018-04-16T13:44:04.553Z,5.20
2018-04-16T13:45:10.074Z,4.80
2018-04-16T13:46:15.591Z,4.80
2018-04-16T13:47:21.113Z,4.60
2018-04-16T13:48:26.640Z,6.40
2018-04-16T13:49:32.146Z,5.40
2018-04-16T13:50:37.690Z,4.20
2018-04-16T13:51:43.187Z,4.80
2018-04-16T13:52:48.713Z,5.00
2018-04-16T13:53:54.227Z,4.90
2018-04-16T13:54:59.786Z,5.00
2018-04-16T13:56:05.530Z,4.70
2018-04-16T13:57:10.793Z,4.80
2018-04-16T13:58:16.311Z,4.70
2018-04-16T13:59:21.824Z,5.20
2018-04-16T14:00:27.351Z,4.50
2018-04-16T14:01:33.025Z,4.50
2018-04-16T14:02:38.383Z,4.00
2018-04-16T14:03:43.907Z,4.00
2018-04-16T14:04:49.436Z,4.60
2018-04-16T14:05:54.945Z,4.50
2018-04-16T14:07:00.464Z,4.80
2018-04-16T14:08:05.986Z,5.30
2018-04-16T14:09:11.502Z,5.70
2018-04-16T14:10:17.032Z,6.10
2018-04-16T14:11:22.545Z,6.80
2018-04-16T14:12:28.073Z,6.90
2018-04-16T14:13:33.578Z,7.60
2018-04-16T14:14:39.111Z,6.90
2018-04-16T14:15:44.619Z,7.20
2018-04-16T14:16:50.136Z,6.60
2018-04-16T14:17:55.654Z,5.70
2018-04-16T14:19:01.197Z,5.50
2018-04-16T14:20:06.705Z,5.50
2018-04-16T14:21:12.215Z,5.70
2018-04-16T14:22:17.737Z,6.00
2018-04-16T14:23:23.255Z,7.00
2018-04-16T14:24:28.773Z,6.20
2018-04-16T14:25:34.293Z,6.30
2018-04-16T14:26:39.827Z,6.50
2018-04-16T14:27:45.330Z,6.80